sensor_id;sensor_type;location;lat;lon;timestamp;temperature;humidity
46055;DHT22;31788;6.954;-71.872;2023-04-29T00:01:02;27.70;99.80
46055;DHT22;31788;6.954;-71.872;2023-04-29T00:03:30;27.70;99.90
46055;DHT22;31788;6.954;-71.872;2023-04-29T00:06:00;27.70;99.90
46055;DHT22;31788;6.954;-71.872;2023-04-29T00:08:27;27.70;99.90
46055;DHT22;31788;6.954;-71.872;2023-04-29T00:10:54;27.70;99.90
46055;DHT22;31788;6.954;-71.872;2023-04-29T00:13:20;27.70;99.90
46055;DHT22;31788;6.954;-71.872;2023-04-29T00:15:47;27.70;99.90
46055;DHT22;31788;6.954;-71.872;2023-04-29T00:18:14;27.60;99.90
46055;DHT22;31788;6.954;-71.872;2023-04-29T00:20:40;27.60;99.90
46055;DHT22;31788;6.954;-71.872;2023-04-29T00:23:08;27.60;99.90
46055;DHT22;31788;6.954;-71.872;2023-04-29T00:25:35;27.50;99.90
46055;DHT22;31788;6.954;-71.872;2023-04-29T00:28:04;27.60;99.90
46055;DHT22;31788;6.954;-71.872;2023-04-29T00:30:31;27.60;99.90
46055;DHT22;31788;6.954;-71.872;2023-04-29T00:33:00;27.50;99.90
46055;DHT22;31788;6.954;-71.872;2023-04-29T00:35:27;27.50;99.90
46055;DHT22;31788;6.954;-71.872;2023-04-29T00:37:55;27.50;99.90
46055;DHT22;31788;6.954;-71.872;2023-04-29T00:40:21;27.50;99.80
46055;DHT22;31788;6.954;-71.872;2023-04-29T00:42:48;27.50;99.60
46055;DHT22;31788;6.954;-71.872;2023-04-29T00:45:16;27.50;99.50
46055;DHT22;31788;6.954;-71.872;2023-04-29T00:47:42;27.50;99.40
46055;DHT22;31788;6.954;-71.872;2023-04-29T00:50:09;27.50;99.50
46055;DHT22;31788;6.954;-71.872;2023-04-29T00:52:37;27.50;99.40
46055;DHT22;31788;6.954;-71.872;2023-04-29T00:55:05;27.50;99.30
46055;DHT22;31788;6.954;-71.872;2023-04-29T00:57:34;27.50;99.50
46055;DHT22;31788;6.954;-71.872;2023-04-29T01:00:00;27.50;99.40
46055;DHT22;31788;6.954;-71.872;2023-04-29T01:02:28;27.50;99.30
46055;DHT22;31788;6.954;-71.872;2023-04-29T01:04:58;27.50;99.20
46055;DHT22;31788;6.954;-71.872;2023-04-29T01:10:34;27.50;99.10
46055;DHT22;31788;6.954;-71.872;2023-04-29T01:13:29;27.40;98.90
46055;DHT22;31788;6.954;-71.872;2023-04-29T01:16:03;27.40;99.10
46055;DHT22;31788;6.954;-71.872;2023-04-29T01:18:40;27.40;99.00
46055;DHT22;31788;6.954;-71.872;2023-04-29T01:21:07;27.30;99.20
46055;DHT22;31788;6.954;-71.872;2023-04-29T01:23:34;27.40;99.40
46055;DHT22;31788;6.954;-71.872;2023-04-29T01:26:00;27.40;99.40
46055;DHT22;31788;6.954;-71.872;2023-04-29T01:34:13;27.40;99.90
46055;DHT22;31788;6.954;-71.872;2023-04-29T01:37:01;27.40;99.80
46055;DHT22;31788;6.954;-71.872;2023-04-29T01:44:37;27.20;99.90
46055;DHT22;31788;6.954;-71.872;2023-04-29T01:47:05;27.20;99.90
46055;DHT22;31788;6.954;-71.872;2023-04-29T01:49:35;27.20;99.90
46055;DHT22;31788;6.954;-71.872;2023-04-29T01:52:02;27.20;99.90
46055;DHT22;31788;6.954;-71.872;2023-04-29T01:54:29;27.10;99.90
46055;DHT22;31788;6.954;-71.872;2023-04-29T01:56:57;27.10;99.90
46055;DHT22;31788;6.954;-71.872;2023-04-29T01:59:23;27.10;99.90
46055;DHT22;31788;6.954;-71.872;2023-04-29T02:01:50;27.00;99.90
46055;DHT22;31788;6.954;-71.872;2023-04-29T02:04:17;27.00;99.90
46055;DHT22;31788;6.954;-71.872;2023-04-29T02:06:45;27.00;99.90
46055;DHT22;31788;6.954;-71.872;2023-04-29T02:09:13;26.90;99.90
46055;DHT22;31788;6.954;-71.872;2023-04-29T02:11:39;26.90;99.90
46055;DHT22;31788;6.954;-71.872;2023-04-29T02:14:06;26.90;99.90
46055;DHT22;31788;6.954;-71.872;2023-04-29T02:16:32;27.00;99.90
46055;DHT22;31788;6.954;-71.872;2023-04-29T02:18:59;26.90;99.90
46055;DHT22;31788;6.954;-71.872;2023-04-29T02:21:26;26.90;99.90
46055;DHT22;31788;6.954;-71.872;2023-04-29T02:23:52;26.90;99.90
46055;DHT22;31788;6.954;-71.872;2023-04-29T02:26:19;26.90;99.90
46055;DHT22;31788;6.954;-71.872;2023-04-29T02:28:46;26.90;99.90
46055;DHT22;31788;6.954;-71.872;2023-04-29T02:31:12;26.80;99.90
46055;DHT22;31788;6.954;-71.872;2023-04-29T02:33:39;26.80;99.90
46055;DHT22;31788;6.954;-71.872;2023-04-29T02:36:06;26.90;99.90
46055;DHT22;31788;6.954;-71.872;2023-04-29T02:38:33;26.90;99.90
46055;DHT22;31788;6.954;-71.872;2023-04-29T02:40:59;26.90;99.90
46055;DHT22;31788;6.954;-71.872;2023-04-29T02:43:26;26.80;99.90
46055;DHT22;31788;6.954;-71.872;2023-04-29T02:45:56;26.70;99.90
46055;DHT22;31788;6.954;-71.872;2023-04-29T02:48:23;26.70;99.90
46055;DHT22;31788;6.954;-71.872;2023-04-29T02:50:50;26.70;99.90
46055;DHT22;31788;6.954;-71.872;2023-04-29T02:53:17;26.60;99.90
46055;DHT22;31788;6.954;-71.872;2023-04-29T02:55:46;26.60;99.90
46055;DHT22;31788;6.954;-71.872;2023-04-29T02:58:13;26.60;99.90
46055;DHT22;31788;6.954;-71.872;2023-04-29T03:00:41;26.70;99.90
46055;DHT22;31788;6.954;-71.872;2023-04-29T03:03:07;26.70;99.90
46055;DHT22;31788;6.954;-71.872;2023-04-29T03:05:34;26.80;99.90
46055;DHT22;31788;6.954;-71.872;2023-04-29T03:08:01;26.80;99.90
46055;DHT22;31788;6.954;-71.872;2023-04-29T03:10:29;26.80;99.90
46055;DHT22;31788;6.954;-71.872;2023-04-29T03:12:57;26.80;99.90
46055;DHT22;31788;6.954;-71.872;2023-04-29T03:15:24;26.80;99.90
46055;DHT22;31788;6.954;-71.872;2023-04-29T03:17:52;26.80;99.90
46055;DHT22;31788;6.954;-71.872;2023-04-29T03:20:21;26.80;99.90
46055;DHT22;31788;6.954;-71.872;2023-04-29T03:22:47;26.80;99.90
46055;DHT22;31788;6.954;-71.872;2023-04-29T03:25:14;26.80;99.90
46055;DHT22;31788;6.954;-71.872;2023-04-29T03:27:41;26.80;99.90
46055;DHT22;31788;6.954;-71.872;2023-04-29T03:30:08;26.80;99.90
46055;DHT22;31788;6.954;-71.872;2023-04-29T03:32:35;26.80;99.90
46055;DHT22;31788;6.954;-71.872;2023-04-29T03:35:01;26.80;99.90
46055;DHT22;31788;6.954;-71.872;2023-04-29T03:37:28;26.80;99.90
46055;DHT22;31788;6.954;-71.872;2023-04-29T03:39:55;26.90;99.90
46055;DHT22;31788;6.954;-71.872;2023-04-29T03:42:22;26.90;99.90
46055;DHT22;31788;6.954;-71.872;2023-04-29T03:44:48;26.90;99.90
46055;DHT22;31788;6.954;-71.872;2023-04-29T03:47:15;26.90;99.90
46055;DHT22;31788;6.954;-71.872;2023-04-29T03:49:43;26.90;99.90
46055;DHT22;31788;6.954;-71.872;2023-04-29T03:52:09;26.90;99.90
46055;DHT22;31788;6.954;-71.872;2023-04-29T03:54:37;26.90;99.90
46055;DHT22;31788;6.954;-71.872;2023-04-29T03:57:04;26.90;99.90
46055;DHT22;31788;6.954;-71.872;2023-04-29T03:59:31;26.90;99.90
46055;DHT22;31788;6.954;-71.872;2023-04-29T04:01:58;26.90;99.90
46055;DHT22;31788;6.954;-71.872;2023-04-29T04:04:24;27.00;99.90
46055;DHT22;31788;6.954;-71.872;2023-04-29T04:06:51;26.90;99.90
46055;DHT22;31788;6.954;-71.872;2023-04-29T04:09:18;27.00;99.90
46055;DHT22;31788;6.954;-71.872;2023-04-29T04:11:46;27.00;99.90
46055;DHT22;31788;6.954;-71.872;2023-04-29T04:14:13;27.00;99.90
46055;DHT22;31788;6.954;-71.872;2023-04-29T04:16:39;26.90;99.90
46055;DHT22;31788;6.954;-71.872;2023-04-29T04:19:06;26.90;99.90
46055;DHT22;31788;6.954;-71.872;2023-04-29T04:21:32;26.90;99.90
46055;DHT22;31788;6.954;-71.872;2023-04-29T04:23:59;26.90;99.90
46055;DHT22;31788;6.954;-71.872;2023-04-29T04:26:26;26.90;99.90
46055;DHT22;31788;6.954;-71.872;2023-04-29T04:28:52;26.90;99.90
46055;DHT22;31788;6.954;-71.872;2023-04-29T04:31:19;26.90;99.90
46055;DHT22;31788;6.954;-71.872;2023-04-29T04:33:45;26.90;99.90
46055;DHT22;31788;6.954;-71.872;2023-04-29T04:36:12;26.90;99.90
46055;DHT22;31788;6.954;-71.872;2023-04-29T04:38:39;26.90;99.90
46055;DHT22;31788;6.954;-71.872;2023-04-29T04:41:06;26.90;99.90
46055;DHT22;31788;6.954;-71.872;2023-04-29T04:43:35;26.90;99.90
46055;DHT22;31788;6.954;-71.872;2023-04-29T04:46:13;26.90;99.90
46055;DHT22;31788;6.954;-71.872;2023-04-29T04:48:41;26.90;99.90
46055;DHT22;31788;6.954;-71.872;2023-04-29T04:51:11;26.90;99.90
46055;DHT22;31788;6.954;-71.872;2023-04-29T04:53:40;26.90;99.90
46055;DHT22;31788;6.954;-71.872;2023-04-29T04:56:07;26.90;99.90
46055;DHT22;31788;6.954;-71.872;2023-04-29T04:58:33;26.80;99.90
46055;DHT22;31788;6.954;-71.872;2023-04-29T05:01:00;26.80;99.90
46055;DHT22;31788;6.954;-71.872;2023-04-29T05:03:27;26.70;99.90
46055;DHT22;31788;6.954;-71.872;2023-04-29T05:05:54;26.70;99.90
46055;DHT22;31788;6.954;-71.872;2023-04-29T05:08:21;26.70;99.90
46055;DHT22;31788;6.954;-71.872;2023-04-29T05:10:48;26.70;99.90
46055;DHT22;31788;6.954;-71.872;2023-04-29T05:13:15;26.70;99.90
46055;DHT22;31788;6.954;-71.872;2023-04-29T05:15:41;26.60;99.90
46055;DHT22;31788;6.954;-71.872;2023-04-29T05:18:08;26.60;99.90
46055;DHT22;31788;6.954;-71.872;2023-04-29T05:20:34;26.50;99.90
46055;DHT22;31788;6.954;-71.872;2023-04-29T05:23:02;26.60;99.90
46055;DHT22;31788;6.954;-71.872;2023-04-29T05:25:28;26.60;99.90
46055;DHT22;31788;6.954;-71.872;2023-04-29T05:27:55;26.50;99.90
46055;DHT22;31788;6.954;-71.872;2023-04-29T05:30:22;26.50;99.90
46055;DHT22;31788;6.954;-71.872;2023-04-29T05:32:48;26.50;99.90
46055;DHT22;31788;6.954;-71.872;2023-04-29T05:35:15;26.50;99.90
46055;DHT22;31788;6.954;-71.872;2023-04-29T05:37:42;26.50;99.90
46055;DHT22;31788;6.954;-71.872;2023-04-29T05:40:09;26.50;99.90
46055;DHT22;31788;6.954;-71.872;2023-04-29T05:42:36;26.50;99.90
46055;DHT22;31788;6.954;-71.872;2023-04-29T05:45:04;26.50;99.90
46055;DHT22;31788;6.954;-71.872;2023-04-29T05:47:31;26.50;99.90
46055;DHT22;31788;6.954;-71.872;2023-04-29T05:49:58;26.50;99.90
46055;DHT22;31788;6.954;-71.872;2023-04-29T05:52:24;26.50;99.90
46055;DHT22;31788;6.954;-71.872;2023-04-29T05:54:51;26.50;99.90
46055;DHT22;31788;6.954;-71.872;2023-04-29T05:57:17;26.50;99.90
46055;DHT22;31788;6.954;-71.872;2023-04-29T05:59:44;26.50;99.90
46055;DHT22;31788;6.954;-71.872;2023-04-29T06:02:11;26.40;99.90
46055;DHT22;31788;6.954;-71.872;2023-04-29T06:04:37;26.40;99.90
46055;DHT22;31788;6.954;-71.872;2023-04-29T06:07:06;26.30;99.90
46055;DHT22;31788;6.954;-71.872;2023-04-29T06:09:35;26.30;99.90
46055;DHT22;31788;6.954;-71.872;2023-04-29T06:12:02;26.30;99.90
46055;DHT22;31788;6.954;-71.872;2023-04-29T06:14:28;26.30;99.90
46055;DHT22;31788;6.954;-71.872;2023-04-29T06:16:55;26.20;99.90
46055;DHT22;31788;6.954;-71.872;2023-04-29T06:19:22;26.20;99.90
46055;DHT22;31788;6.954;-71.872;2023-04-29T06:21:50;26.20;99.90
46055;DHT22;31788;6.954;-71.872;2023-04-29T06:24:17;26.20;99.90
46055;DHT22;31788;6.954;-71.872;2023-04-29T06:26:43;26.20;99.90
46055;DHT22;31788;6.954;-71.872;2023-04-29T06:29:10;26.20;99.90
46055;DHT22;31788;6.954;-71.872;2023-04-29T06:31:37;26.10;99.90
46055;DHT22;31788;6.954;-71.872;2023-04-29T06:34:04;26.10;99.90
46055;DHT22;31788;6.954;-71.872;2023-04-29T06:36:31;26.10;99.90
46055;DHT22;31788;6.954;-71.872;2023-04-29T06:38:58;26.00;99.90
46055;DHT22;31788;6.954;-71.872;2023-04-29T06:41:24;26.00;99.90
46055;DHT22;31788;6.954;-71.872;2023-04-29T06:43:52;26.00;99.90
46055;DHT22;31788;6.954;-71.872;2023-04-29T06:46:18;26.00;99.90
46055;DHT22;31788;6.954;-71.872;2023-04-29T06:48:45;26.00;99.90
46055;DHT22;31788;6.954;-71.872;2023-04-29T06:51:12;26.00;99.90
46055;DHT22;31788;6.954;-71.872;2023-04-29T06:53:38;26.10;99.90
46055;DHT22;31788;6.954;-71.872;2023-04-29T06:56:06;26.10;99.90
46055;DHT22;31788;6.954;-71.872;2023-04-29T06:58:32;26.10;99.90
46055;DHT22;31788;6.954;-71.872;2023-04-29T07:00:59;26.00;99.90
46055;DHT22;31788;6.954;-71.872;2023-04-29T07:03:26;26.00;99.90
46055;DHT22;31788;6.954;-71.872;2023-04-29T07:05:52;26.00;99.90
46055;DHT22;31788;6.954;-71.872;2023-04-29T07:08:19;26.00;99.90
46055;DHT22;31788;6.954;-71.872;2023-04-29T07:10:53;25.90;99.90
46055;DHT22;31788;6.954;-71.872;2023-04-29T07:13:21;25.90;99.90
46055;DHT22;31788;6.954;-71.872;2023-04-29T07:15:47;25.80;99.90
46055;DHT22;31788;6.954;-71.872;2023-04-29T07:18:14;25.80;99.90
46055;DHT22;31788;6.954;-71.872;2023-04-29T07:20:40;25.70;99.90
46055;DHT22;31788;6.954;-71.872;2023-04-29T07:23:08;25.70;99.90
46055;DHT22;31788;6.954;-71.872;2023-04-29T07:25:35;25.70;99.90
46055;DHT22;31788;6.954;-71.872;2023-04-29T07:28:02;25.70;99.90
46055;DHT22;31788;6.954;-71.872;2023-04-29T07:30:28;25.70;99.90
46055;DHT22;31788;6.954;-71.872;2023-04-29T07:32:55;25.70;99.90
46055;DHT22;31788;6.954;-71.872;2023-04-29T07:35:22;25.70;99.90
46055;DHT22;31788;6.954;-71.872;2023-04-29T07:37:49;25.70;99.90
46055;DHT22;31788;6.954;-71.872;2023-04-29T07:40:16;25.70;99.90
46055;DHT22;31788;6.954;-71.872;2023-04-29T07:42:42;25.70;99.90
46055;DHT22;31788;6.954;-71.872;2023-04-29T07:45:09;25.70;99.90
46055;DHT22;31788;6.954;-71.872;2023-04-29T07:47:38;25.70;99.90
46055;DHT22;31788;6.954;-71.872;2023-04-29T07:50:05;25.60;99.90
46055;DHT22;31788;6.954;-71.872;2023-04-29T07:52:32;25.60;99.90
46055;DHT22;31788;6.954;-71.872;2023-04-29T07:54:59;25.60;99.90
46055;DHT22;31788;6.954;-71.872;2023-04-29T07:57:25;25.60;99.90
46055;DHT22;31788;6.954;-71.872;2023-04-29T07:59:53;25.60;99.90
46055;DHT22;31788;6.954;-71.872;2023-04-29T08:02:19;25.70;99.90
46055;DHT22;31788;6.954;-71.872;2023-04-29T08:04:46;25.70;99.90
46055;DHT22;31788;6.954;-71.872;2023-04-29T08:07:13;25.70;99.90
46055;DHT22;31788;6.954;-71.872;2023-04-29T08:09:40;25.70;99.90
46055;DHT22;31788;6.954;-71.872;2023-04-29T08:12:06;25.60;99.90
46055;DHT22;31788;6.954;-71.872;2023-04-29T08:14:34;25.70;99.90
46055;DHT22;31788;6.954;-71.872;2023-04-29T08:17:00;25.60;99.90
46055;DHT22;31788;6.954;-71.872;2023-04-29T08:19:27;25.60;99.90
46055;DHT22;31788;6.954;-71.872;2023-04-29T08:21:53;25.60;99.90
46055;DHT22;31788;6.954;-71.872;2023-04-29T08:24:20;25.60;99.90
46055;DHT22;31788;6.954;-71.872;2023-04-29T08:26:47;25.60;99.90
46055;DHT22;31788;6.954;-71.872;2023-04-29T08:29:14;25.60;99.90
46055;DHT22;31788;6.954;-71.872;2023-04-29T08:31:41;25.60;99.90
46055;DHT22;31788;6.954;-71.872;2023-04-29T08:34:07;25.60;99.90
46055;DHT22;31788;6.954;-71.872;2023-04-29T08:36:34;25.60;99.90
46055;DHT22;31788;6.954;-71.872;2023-04-29T08:39:03;25.60;99.90
46055;DHT22;31788;6.954;-71.872;2023-04-29T08:41:33;25.50;99.90
46055;DHT22;31788;6.954;-71.872;2023-04-29T08:44:01;25.50;99.90
46055;DHT22;31788;6.954;-71.872;2023-04-29T08:46:28;25.50;99.90
46055;DHT22;31788;6.954;-71.872;2023-04-29T08:48:56;25.50;99.90
46055;DHT22;31788;6.954;-71.872;2023-04-29T08:51:23;25.50;99.90
46055;DHT22;31788;6.954;-71.872;2023-04-29T08:53:49;25.40;99.90
46055;DHT22;31788;6.954;-71.872;2023-04-29T08:56:17;25.40;99.90
46055;DHT22;31788;6.954;-71.872;2023-04-29T08:58:49;25.40;99.90
46055;DHT22;31788;6.954;-71.872;2023-04-29T09:01:20;25.40;99.90
46055;DHT22;31788;6.954;-71.872;2023-04-29T09:06:59;25.30;99.90
46055;DHT22;31788;6.954;-71.872;2023-04-29T09:09:26;25.20;99.90
46055;DHT22;31788;6.954;-71.872;2023-04-29T09:11:53;25.20;99.90
46055;DHT22;31788;6.954;-71.872;2023-04-29T09:14:22;25.20;99.90
46055;DHT22;31788;6.954;-71.872;2023-04-29T09:16:49;25.10;99.90
46055;DHT22;31788;6.954;-71.872;2023-04-29T09:19:35;25.10;99.90
46055;DHT22;31788;6.954;-71.872;2023-04-29T09:22:03;25.10;99.90
46055;DHT22;31788;6.954;-71.872;2023-04-29T09:24:32;25.00;99.90
46055;DHT22;31788;6.954;-71.872;2023-04-29T09:26:59;25.00;99.90
46055;DHT22;31788;6.954;-71.872;2023-04-29T09:29:26;25.00;99.90
46055;DHT22;31788;6.954;-71.872;2023-04-29T09:31:53;25.00;99.90
46055;DHT22;31788;6.954;-71.872;2023-04-29T09:34:46;25.00;99.90
46055;DHT22;31788;6.954;-71.872;2023-04-29T09:37:25;25.00;99.90
46055;DHT22;31788;6.954;-71.872;2023-04-29T09:39:53;25.00;99.90
46055;DHT22;31788;6.954;-71.872;2023-04-29T09:42:20;25.00;99.90
46055;DHT22;31788;6.954;-71.872;2023-04-29T09:44:46;24.90;99.90
46055;DHT22;31788;6.954;-71.872;2023-04-29T09:47:13;24.90;99.90
46055;DHT22;31788;6.954;-71.872;2023-04-29T09:49:44;24.80;99.90
46055;DHT22;31788;6.954;-71.872;2023-04-29T09:52:14;24.80;99.90
46055;DHT22;31788;6.954;-71.872;2023-04-29T09:54:45;24.80;99.90
46055;DHT22;31788;6.954;-71.872;2023-04-29T09:57:12;24.70;99.90
46055;DHT22;31788;6.954;-71.872;2023-04-29T09:59:41;24.70;99.90
46055;DHT22;31788;6.954;-71.872;2023-04-29T10:02:15;24.70;99.90
46055;DHT22;31788;6.954;-71.872;2023-04-29T10:04:47;24.70;99.90
46055;DHT22;31788;6.954;-71.872;2023-04-29T10:07:19;24.70;99.90
46055;DHT22;31788;6.954;-71.872;2023-04-29T10:09:47;24.70;99.90
46055;DHT22;31788;6.954;-71.872;2023-04-29T10:12:18;24.70;99.90
46055;DHT22;31788;6.954;-71.872;2023-04-29T10:18:18;24.80;99.90
46055;DHT22;31788;6.954;-71.872;2023-04-29T10:20:46;24.80;99.90
46055;DHT22;31788;6.954;-71.872;2023-04-29T10:23:14;24.80;99.90
46055;DHT22;31788;6.954;-71.872;2023-04-29T10:25:45;24.80;99.90
46055;DHT22;31788;6.954;-71.872;2023-04-29T10:28:14;24.80;99.90
46055;DHT22;31788;6.954;-71.872;2023-04-29T10:30:46;24.70;99.90
46055;DHT22;31788;6.954;-71.872;2023-04-29T10:33:15;24.70;99.90
46055;DHT22;31788;6.954;-71.872;2023-04-29T10:35:47;24.70;99.90
46055;DHT22;31788;6.954;-71.872;2023-04-29T10:38:23;24.70;99.90
46055;DHT22;31788;6.954;-71.872;2023-04-29T10:40:52;24.70;99.90
46055;DHT22;31788;6.954;-71.872;2023-04-29T10:43:23;24.70;99.90
46055;DHT22;31788;6.954;-71.872;2023-04-29T10:49:04;24.70;99.90
46055;DHT22;31788;6.954;-71.872;2023-04-29T10:51:38;24.70;99.90
46055;DHT22;31788;6.954;-71.872;2023-04-29T10:54:11;24.70;99.90
46055;DHT22;31788;6.954;-71.872;2023-04-29T10:56:56;24.70;99.90
46055;DHT22;31788;6.954;-71.872;2023-04-29T11:02:12;24.70;99.90
46055;DHT22;31788;6.954;-71.872;2023-04-29T11:05:06;24.80;99.90
46055;DHT22;31788;6.954;-71.872;2023-04-29T11:07:33;24.80;99.90
46055;DHT22;31788;6.954;-71.872;2023-04-29T11:10:01;24.70;99.90
46055;DHT22;31788;6.954;-71.872;2023-04-29T11:12:28;24.70;99.90
46055;DHT22;31788;6.954;-71.872;2023-04-29T11:14:57;24.80;99.90
46055;DHT22;31788;6.954;-71.872;2023-04-29T11:17:36;24.80;99.90
46055;DHT22;31788;6.954;-71.872;2023-04-29T11:20:04;24.80;99.90
46055;DHT22;31788;6.954;-71.872;2023-04-29T11:22:35;24.90;99.90
46055;DHT22;31788;6.954;-71.872;2023-04-29T11:25:08;24.90;99.90
46055;DHT22;31788;6.954;-71.872;2023-04-29T11:27:38;24.90;99.90
46055;DHT22;31788;6.954;-71.872;2023-04-29T11:30:08;24.90;99.90
46055;DHT22;31788;6.954;-71.872;2023-04-29T11:32:37;25.00;99.90
46055;DHT22;31788;6.954;-71.872;2023-04-29T11:35:09;25.00;99.90
46055;DHT22;31788;6.954;-71.872;2023-04-29T11:37:37;25.00;99.90
46055;DHT22;31788;6.954;-71.872;2023-04-29T11:40:06;25.10;99.90
46055;DHT22;31788;6.954;-71.872;2023-04-29T11:42:41;25.10;99.90
46055;DHT22;31788;6.954;-71.872;2023-04-29T11:45:09;25.10;99.90
46055;DHT22;31788;6.954;-71.872;2023-04-29T11:47:35;25.20;99.90
46055;DHT22;31788;6.954;-71.872;2023-04-29T11:50:07;25.20;99.90
46055;DHT22;31788;6.954;-71.872;2023-04-29T11:52:36;25.20;99.90
46055;DHT22;31788;6.954;-71.872;2023-04-29T11:55:04;25.30;99.90
46055;DHT22;31788;6.954;-71.872;2023-04-29T11:57:31;25.30;99.90
46055;DHT22;31788;6.954;-71.872;2023-04-29T11:59:58;25.30;99.90
46055;DHT22;31788;6.954;-71.872;2023-04-29T12:02:31;25.40;99.90
46055;DHT22;31788;6.954;-71.872;2023-04-29T12:04:58;25.40;99.90
46055;DHT22;31788;6.954;-71.872;2023-04-29T12:07:28;25.40;99.90
46055;DHT22;31788;6.954;-71.872;2023-04-29T12:09:55;25.40;99.90
46055;DHT22;31788;6.954;-71.872;2023-04-29T12:12:23;25.40;99.90
46055;DHT22;31788;6.954;-71.872;2023-04-29T12:14:50;25.40;99.90
46055;DHT22;31788;6.954;-71.872;2023-04-29T12:17:17;25.50;99.90
46055;DHT22;31788;6.954;-71.872;2023-04-29T12:19:44;25.50;99.90
46055;DHT22;31788;6.954;-71.872;2023-04-29T12:22:11;25.50;99.90
46055;DHT22;31788;6.954;-71.872;2023-04-29T12:24:39;25.60;99.90
46055;DHT22;31788;6.954;-71.872;2023-04-29T12:27:09;25.60;99.90
46055;DHT22;31788;6.954;-71.872;2023-04-29T12:29:37;25.70;99.90
46055;DHT22;31788;6.954;-71.872;2023-04-29T12:32:04;25.70;99.90
46055;DHT22;31788;6.954;-71.872;2023-04-29T12:34:31;25.70;99.90
46055;DHT22;31788;6.954;-71.872;2023-04-29T12:36:59;25.70;99.90
46055;DHT22;31788;6.954;-71.872;2023-04-29T12:39:26;25.70;99.90
46055;DHT22;31788;6.954;-71.872;2023-04-29T12:41:59;25.80;99.90
46055;DHT22;31788;6.954;-71.872;2023-04-29T12:44:35;25.80;99.90
46055;DHT22;31788;6.954;-71.872;2023-04-29T12:47:10;25.90;99.90
46055;DHT22;31788;6.954;-71.872;2023-04-29T12:49:41;25.90;99.90
46055;DHT22;31788;6.954;-71.872;2023-04-29T12:52:08;25.90;99.90
46055;DHT22;31788;6.954;-71.872;2023-04-29T12:54:36;26.00;99.90
46055;DHT22;31788;6.954;-71.872;2023-04-29T12:57:03;26.00;99.90
46055;DHT22;31788;6.954;-71.872;2023-04-29T12:59:33;26.00;99.90
46055;DHT22;31788;6.954;-71.872;2023-04-29T13:01:59;26.10;99.90
46055;DHT22;31788;6.954;-71.872;2023-04-29T13:04:26;26.20;99.90
46055;DHT22;31788;6.954;-71.872;2023-04-29T13:06:54;26.20;99.90
46055;DHT22;31788;6.954;-71.872;2023-04-29T13:09:28;26.20;99.90
46055;DHT22;31788;6.954;-71.872;2023-04-29T13:11:57;26.30;99.90
46055;DHT22;31788;6.954;-71.872;2023-04-29T13:14:24;26.30;99.90
46055;DHT22;31788;6.954;-71.872;2023-04-29T13:16:50;26.40;99.90
46055;DHT22;31788;6.954;-71.872;2023-04-29T13:19:18;26.40;99.90
46055;DHT22;31788;6.954;-71.872;2023-04-29T13:21:45;26.50;99.90
46055;DHT22;31788;6.954;-71.872;2023-04-29T13:24:13;26.60;99.40
46055;DHT22;31788;6.954;-71.872;2023-04-29T13:26:42;26.70;99.20
46055;DHT22;31788;6.954;-71.872;2023-04-29T13:29:09;26.80;99.30
46055;DHT22;31788;6.954;-71.872;2023-04-29T13:31:36;26.80;98.80
46055;DHT22;31788;6.954;-71.872;2023-04-29T13:34:03;26.80;99.30
46055;DHT22;31788;6.954;-71.872;2023-04-29T13:36:29;26.90;99.50
46055;DHT22;31788;6.954;-71.872;2023-04-29T13:38:56;27.10;99.30
46055;DHT22;31788;6.954;-71.872;2023-04-29T13:41:22;27.10;99.10
46055;DHT22;31788;6.954;-71.872;2023-04-29T13:43:50;27.20;99.20
46055;DHT22;31788;6.954;-71.872;2023-04-29T13:46:17;27.20;98.90
46055;DHT22;31788;6.954;-71.872;2023-04-29T13:48:43;27.20;99.10
46055;DHT22;31788;6.954;-71.872;2023-04-29T13:51:10;27.30;98.80
46055;DHT22;31788;6.954;-71.872;2023-04-29T13:53:37;27.40;98.40
46055;DHT22;31788;6.954;-71.872;2023-04-29T13:56:04;27.50;98.70
46055;DHT22;31788;6.954;-71.872;2023-04-29T13:58:31;27.60;99.10
46055;DHT22;31788;6.954;-71.872;2023-04-29T14:00:57;27.60;98.60
46055;DHT22;31788;6.954;-71.872;2023-04-29T14:03:24;27.70;98.60
46055;DHT22;31788;6.954;-71.872;2023-04-29T14:05:51;27.70;98.60
46055;DHT22;31788;6.954;-71.872;2023-04-29T14:08:17;27.70;98.80
46055;DHT22;31788;6.954;-71.872;2023-04-29T14:10:45;27.70;99.10
46055;DHT22;31788;6.954;-71.872;2023-04-29T14:13:12;27.70;98.90
46055;DHT22;31788;6.954;-71.872;2023-04-29T14:15:39;27.80;99.20
46055;DHT22;31788;6.954;-71.872;2023-04-29T14:18:07;27.80;98.60
46055;DHT22;31788;6.954;-71.872;2023-04-29T14:20:34;27.80;98.60
46055;DHT22;31788;6.954;-71.872;2023-04-29T14:23:01;27.80;98.70
46055;DHT22;31788;6.954;-71.872;2023-04-29T14:25:28;28.00;98.60
46055;DHT22;31788;6.954;-71.872;2023-04-29T14:27:54;28.10;98.40
46055;DHT22;31788;6.954;-71.872;2023-04-29T14:30:21;28.10;98.10
46055;DHT22;31788;6.954;-71.872;2023-04-29T14:32:48;28.10;98.20
46055;DHT22;31788;6.954;-71.872;2023-04-29T14:35:14;28.30;97.80
46055;DHT22;31788;6.954;-71.872;2023-04-29T14:37:41;28.30;97.70
46055;DHT22;31788;6.954;-71.872;2023-04-29T14:40:09;28.30;98.00
46055;DHT22;31788;6.954;-71.872;2023-04-29T14:42:36;28.40;97.70
46055;DHT22;31788;6.954;-71.872;2023-04-29T14:45:03;28.40;97.50
46055;DHT22;31788;6.954;-71.872;2023-04-29T14:47:29;28.40;97.70
46055;DHT22;31788;6.954;-71.872;2023-04-29T14:49:56;28.40;97.80
46055;DHT22;31788;6.954;-71.872;2023-04-29T14:52:23;28.40;97.20
46055;DHT22;31788;6.954;-71.872;2023-04-29T14:54:49;28.40;96.50
46055;DHT22;31788;6.954;-71.872;2023-04-29T14:57:16;28.40;96.80
46055;DHT22;31788;6.954;-71.872;2023-04-29T14:59:42;28.60;96.70
46055;DHT22;31788;6.954;-71.872;2023-04-29T15:02:10;28.60;96.90
46055;DHT22;31788;6.954;-71.872;2023-04-29T15:04:37;28.60;96.80
46055;DHT22;31788;6.954;-71.872;2023-04-29T15:07:06;28.70;96.90
46055;DHT22;31788;6.954;-71.872;2023-04-29T15:09:34;28.70;96.60
46055;DHT22;31788;6.954;-71.872;2023-04-29T15:12:00;28.80;96.50
46055;DHT22;31788;6.954;-71.872;2023-04-29T15:14:27;28.80;96.90
46055;DHT22;31788;6.954;-71.872;2023-04-29T15:16:54;28.90;96.50
46055;DHT22;31788;6.954;-71.872;2023-04-29T15:19:20;28.90;96.80
46055;DHT22;31788;6.954;-71.872;2023-04-29T15:21:50;29.00;96.70
46055;DHT22;31788;6.954;-71.872;2023-04-29T15:24:18;29.00;96.50
46055;DHT22;31788;6.954;-71.872;2023-04-29T15:26:44;29.00;96.40
46055;DHT22;31788;6.954;-71.872;2023-04-29T15:29:11;29.00;96.60
46055;DHT22;31788;6.954;-71.872;2023-04-29T15:31:38;28.90;96.40
46055;DHT22;31788;6.954;-71.872;2023-04-29T15:34:05;29.00;96.60
46055;DHT22;31788;6.954;-71.872;2023-04-29T15:36:31;28.90;96.50
46055;DHT22;31788;6.954;-71.872;2023-04-29T15:39:00;29.00;96.30
46055;DHT22;31788;6.954;-71.872;2023-04-29T15:41:27;29.00;96.20
46055;DHT22;31788;6.954;-71.872;2023-04-29T15:43:55;29.10;96.40
46055;DHT22;31788;6.954;-71.872;2023-04-29T15:46:22;29.10;96.40